KBKD

Stephens County Airport

Breckenridge, Texas, USA
METAR KBKD 141335Z AUTO 20008KT 5SM HZ OVC100 25/22 A2995 RMK AO2 T02470221
Observed Flight Rules
Aug-14 @ 13:35 UTC (8 minutes ago) Marginal Visual Flight Rules
Wind Visibility Clouds Conditions
200° at 8 knots 5 miles
  • Overcast at 10,000' AGL
  • Haze
Temperatures Readings
Current 25°C / 77°F
Dewpoint 22°C / 72°F
Humidity 83%
Altimeter 29.95" Hg
Pressure 1014 hPa
Elevation 392
METAR KBKD 141335Z AUTO 20008KT 5SM HZ OVC100 25/22 A2995 RMK AO2 T02470221
Observed Flight Rules
Aug-14 @ 13:35 UTC
(8 minutes ago)
MVFR
Wind Visibility
200° at 8 knots 5 miles
Clouds
  • Overcast at 10,000' AGL
Conditions
  • Haze
Temperature Dewpoint
25°C / 77°F 22°C / 72°F
Humidity Altimeter Pressure
83% 29.95" Hg 1014 hPa